createdAt,value
2019-04-14T00:00:27.516Z,4.4
2019-04-14T00:03:26.383Z,4.4
2019-04-14T00:06:26.847Z,4.3
2019-04-14T00:09:27.617Z,4.3
2019-04-14T00:12:27.470Z,4.4
2019-04-14T00:15:55.124Z,4.3
2019-04-14T00:18:27.462Z,4.4
2019-04-14T00:21:26.409Z,4.3
2019-04-14T00:24:27.398Z,4.2
2019-04-14T00:27:26.396Z,4.2
2019-04-14T00:30:27.533Z,4.3
2019-04-14T00:33:26.205Z,4.2
2019-04-14T00:36:26.420Z,4.2
2019-04-14T00:39:27.592Z,4.2
2019-04-14T00:42:26.191Z,4.2
2019-04-14T00:48:27.703Z,4.1
2019-04-14T00:51:26.803Z,4.1
2019-04-14T00:54:26.262Z,4.2
2019-04-14T00:57:27.177Z,4.2
2019-04-14T01:00:26.161Z,4.1
2019-04-14T01:03:26.809Z,4.1
2019-04-14T01:06:27.567Z,4.2
2019-04-14T01:09:26.449Z,4.1
2019-04-14T01:12:26.085Z,4
2019-04-14T01:15:27.009Z,4.1
2019-04-14T01:18:26.106Z,4.1
2019-04-14T01:21:26.653Z,4.3
2019-04-14T01:24:27.421Z,4.2
2019-04-14T01:27:28.031Z,4.1
2019-04-14T01:30:26.500Z,4.1
2019-04-14T01:33:27.558Z,4
2019-04-14T01:36:26.123Z,4
2019-04-14T01:39:26.828Z,4.1
2019-04-14T01:42:27.108Z,4.2
2019-04-14T01:45:26.028Z,4.2
2019-04-14T01:48:26.045Z,4.1
2019-04-14T01:51:26.967Z,4.1
2019-04-14T01:54:26.119Z,4.1
2019-04-14T01:57:26.587Z,4
2019-04-14T02:00:27.219Z,3.9
2019-04-14T02:03:28.278Z,4
2019-04-14T02:06:26.842Z,4.1
2019-04-14T02:09:27.514Z,4
2019-04-14T02:12:26.181Z,4
2019-04-14T02:15:26.855Z,4
2019-04-14T02:18:27.587Z,4
2019-04-14T02:21:26.334Z,4
2019-04-14T02:24:26.698Z,3.9
2019-04-14T02:27:27.585Z,3.9
2019-04-14T03:57:32.919Z,3.9
2019-04-14T04:00:31.819Z,3.9
2019-04-14T04:03:26.363Z,3.8
2019-04-14T04:06:27.324Z,3.6
2019-04-14T04:09:26.117Z,3.7
2019-04-14T04:12:27.488Z,3.7
2019-04-14T04:15:26.286Z,3.6
2019-04-14T04:18:26.905Z,3.6
2019-04-14T04:21:27.473Z,3.6
2019-04-14T04:24:35.365Z,3.7
2019-04-14T04:27:26.844Z,3.7
2019-04-14T04:30:27.662Z,3.7
2019-04-14T04:33:26.683Z,3.7
2019-04-14T04:36:27.234Z,3.6
2019-04-14T04:39:26.087Z,3.7
2019-04-14T04:42:26.867Z,3.8
2019-04-14T04:45:26.226Z,3.7
2019-04-14T04:48:26.688Z,3.7
2019-04-14T04:51:27.148Z,3.7
2019-04-14T04:54:26.027Z,3.6
2019-04-14T04:57:26.657Z,3.6
2019-04-14T05:00:26.907Z,3.6
2019-04-14T05:03:26.148Z,3.6
2019-04-14T05:06:26.931Z,3.6
2019-04-14T05:09:27.753Z,3.7
2019-04-14T05:12:26.565Z,3.8
2019-04-14T05:15:27.312Z,3.7
2019-04-14T05:18:29.396Z,3.6
2019-04-14T05:21:26.107Z,3.7
2019-04-14T05:24:27.211Z,3.7
2019-04-14T05:27:27.755Z,3.8
2019-04-14T05:30:26.711Z,3.7
2019-04-14T05:33:27.507Z,3.6
2019-04-14T05:36:26.315Z,3.7
2019-04-14T05:39:26.791Z,3.8
2019-04-14T05:42:30.427Z,3.8
2019-04-14T05:45:26.601Z,3.8
2019-04-14T05:48:27.817Z,3.8
2019-04-14T05:51:26.765Z,3.8
2019-04-14T05:54:27.566Z,3.8
2019-04-14T05:57:26.582Z,3.9
2019-04-14T06:00:26.352Z,3.9
2019-04-14T06:03:26.176Z,3.9
2019-04-14T06:06:26.040Z,3.8
2019-04-14T06:09:25.937Z,3.8
2019-04-14T06:12:25.973Z,3.7
2019-04-14T06:15:26.048Z,3.9
2019-04-14T06:18:26.214Z,3.8
2019-04-14T06:21:26.146Z,3.8
2019-04-14T06:24:25.990Z,3.7
2019-04-14T06:27:25.955Z,3.8
2019-04-14T06:30:26.066Z,3.8
2019-04-14T06:33:26.053Z,3.9
2019-04-14T06:36:26.122Z,3.9
2019-04-14T06:39:26.338Z,4
2019-04-14T06:42:26.183Z,4
2019-04-14T06:45:25.908Z,4.1
2019-04-14T06:48:25.966Z,4.1
2019-04-14T06:51:26.016Z,4.2
2019-04-14T06:54:26.092Z,4.1
2019-04-14T06:57:26.068Z,4.2
2019-04-14T07:00:25.916Z,4.1
2019-04-14T07:03:25.901Z,11.5
2019-04-14T07:06:25.978Z,16.9
2019-04-14T07:09:26.036Z,19.2
2019-04-14T07:12:26.275Z,18.9
2019-04-14T07:15:26.118Z,17.6
2019-04-14T07:18:26.161Z,15.7
2019-04-14T07:21:25.884Z,14.3
2019-04-14T07:24:26.086Z,12.7
2019-04-14T07:27:26.083Z,11.7
2019-04-14T07:30:26.077Z,10.6
2019-04-14T07:33:26.189Z,9.9
2019-04-14T07:36:26.083Z,9.2
2019-04-14T07:39:25.954Z,8.9
2019-04-14T07:42:25.949Z,8.4
2019-04-14T07:45:26.029Z,8.3
2019-04-14T07:48:26.282Z,8.3
2019-04-14T07:51:26.135Z,8.1
2019-04-14T07:54:26.126Z,7.8
2019-04-14T07:57:25.872Z,7.7
2019-04-14T08:00:26.014Z,7.4
2019-04-14T08:03:26.016Z,7.3
2019-04-14T08:06:26.007Z,7
2019-04-14T08:09:26.114Z,6.9
2019-04-14T08:12:26.268Z,7.1
2019-04-14T08:15:25.958Z,6.9
2019-04-14T08:18:26.059Z,7
2019-04-14T08:21:26.278Z,6.8
2019-04-14T08:24:26.158Z,6.6
2019-04-14T08:27:26.163Z,6.4
2019-04-14T08:30:26.250Z,6.5
2019-04-14T08:33:26.192Z,6.3
2019-04-14T08:36:25.836Z,6.2
2019-04-14T08:39:25.920Z,6.5
2019-04-14T08:42:26.015Z,7.3
2019-04-14T08:45:26.241Z,8.2
2019-04-14T08:48:26.021Z,7.6
2019-04-14T08:51:25.914Z,16.8
2019-04-14T08:54:25.926Z,18
2019-04-14T08:57:26.104Z,14.6
2019-04-14T09:00:26.009Z,12.7
2019-04-14T09:03:26.051Z,12.7
2019-04-14T09:06:26.191Z,10.7
2019-04-14T09:09:25.869Z,12.5
2019-04-14T09:12:25.886Z,11.5
2019-04-14T09:15:26.023Z,9.5
2019-04-14T09:18:26.045Z,10.2
2019-04-14T09:21:26.133Z,8.8
2019-04-14T09:24:26.208Z,8.8
2019-04-14T09:27:25.966Z,8.3
2019-04-14T09:30:26.171Z,10.2
2019-04-14T09:33:26.026Z,9.7
2019-04-14T09:36:26.040Z,9.2
2019-04-14T09:39:26.071Z,8.4
2019-04-14T09:42:26.054Z,8.3
2019-04-14T09:45:26.217Z,7.7
2019-04-14T09:48:25.849Z,7.7
2019-04-14T09:51:25.880Z,7.6
2019-04-14T09:54:26.074Z,10.5
2019-04-14T09:57:26.001Z,9.8
2019-04-14T10:00:26.420Z,10.4
2019-04-14T10:03:26.121Z,9.1
2019-04-14T10:06:26.219Z,12.1
2019-04-14T10:09:26.383Z,16.1
2019-04-14T10:12:26.012Z,13.8
2019-04-14T10:15:25.977Z,12.4
2019-04-14T10:18:26.040Z,10.9
2019-04-14T10:21:26.061Z,9
2019-04-14T10:24:25.921Z,8.2
2019-04-14T10:27:25.901Z,9.2
2019-04-14T10:30:25.899Z,8.4
2019-04-14T10:33:25.909Z,7.6
2019-04-14T10:36:26.237Z,7
2019-04-14T10:39:26.016Z,6.7
2019-04-14T10:42:25.853Z,6.5
2019-04-14T10:45:25.997Z,6.9
2019-04-14T10:48:26.073Z,7.3
2019-04-14T10:51:34.481Z,7.1
2019-04-14T10:54:26.285Z,6.8
2019-04-14T10:57:26.088Z,6.2
2019-04-14T11:00:25.964Z,6.5
2019-04-14T11:03:25.922Z,6
2019-04-14T11:06:25.879Z,6.3
2019-04-14T11:09:25.994Z,6.1
2019-04-14T11:12:26.038Z,7.7
2019-04-14T11:15:26.069Z,7
2019-04-14T11:18:25.807Z,6.7
2019-04-14T11:21:26.019Z,7.4
2019-04-14T11:24:26.148Z,6.7
2019-04-14T11:27:26.036Z,6.1
2019-04-14T11:30:25.956Z,6
2019-04-14T11:33:26.122Z,5.7
2019-04-14T11:36:25.860Z,5.7
2019-04-14T11:39:26.131Z,5.5
2019-04-14T11:42:26.042Z,8.5
2019-04-14T11:45:26.100Z,10.1
2019-04-14T11:48:26.059Z,10.4
2019-04-14T11:51:26.044Z,11
2019-04-14T11:54:26.192Z,9.6
2019-04-14T11:57:25.844Z,8.4
2019-04-14T12:00:25.894Z,8.2
2019-04-14T12:03:25.927Z,7.7
2019-04-14T12:06:26.017Z,7.2
2019-04-14T12:09:26.108Z,7.3
2019-04-14T12:12:26.020Z,7.1
2019-04-14T12:15:25.809Z,7.1
2019-04-14T12:18:26.303Z,6.8
2019-04-14T12:21:25.896Z,6.7
2019-04-14T12:24:26.049Z,6.3
2019-04-14T12:27:26.058Z,6.3
2019-04-14T12:30:27.165Z,6.1
2019-04-14T12:33:25.785Z,6.1
2019-04-14T12:36:25.932Z,6
2019-04-14T12:39:26.364Z,6
2019-04-14T12:42:25.946Z,7.1
2019-04-14T12:45:26.296Z,7.9
2019-04-14T12:48:26.023Z,6.9
2019-04-14T12:51:25.834Z,7.4
2019-04-14T12:54:25.909Z,6.6
2019-04-14T12:57:25.856Z,7.9
2019-04-14T13:00:26.666Z,7
2019-04-14T13:03:26.050Z,6.5
2019-04-14T13:06:25.964Z,6.4
2019-04-14T13:09:25.978Z,6.4
2019-04-14T13:12:25.918Z,6.1
2019-04-14T13:15:25.877Z,5.9
2019-04-14T13:18:25.867Z,7.6
2019-04-14T13:21:25.928Z,6.7
2019-04-14T13:24:26.135Z,6.3
2019-04-14T13:29:45.382Z,7.1
2019-04-14T13:32:45.161Z,6.4
2019-04-14T13:35:47.442Z,6.1
2019-04-14T13:38:45.527Z,6.1
2019-04-14T13:41:45.188Z,8.8
2019-04-14T13:44:45.187Z,7.3
2019-04-14T13:47:45.094Z,7.8
2019-04-14T13:50:45.282Z,6.8
2019-04-14T13:53:45.289Z,6.5
2019-04-14T13:56:45.392Z,6
2019-04-14T13:59:45.297Z,5.6
2019-04-14T14:02:44.963Z,6.3
2019-04-14T14:05:45.062Z,5.6
2019-04-14T14:08:46.216Z,5.4
2019-04-14T14:11:45.148Z,5.2
2019-04-14T14:14:45.148Z,5.4
2019-04-14T14:17:45.185Z,5.3
2019-04-14T14:20:45.373Z,5.2
2019-04-14T14:23:45.066Z,5.5
2019-04-14T14:26:45.212Z,5.8
2019-04-14T14:29:45.263Z,5.8
2019-04-14T14:32:45.227Z,5.3
2019-04-14T14:35:45.261Z,5.3
2019-04-14T14:38:45.013Z,5.4
2019-04-14T14:41:45.016Z,5.4
2019-04-14T14:44:45.231Z,6.2
2019-04-14T14:47:45.121Z,6
2019-04-14T14:50:45.309Z,5.8
2019-04-14T14:53:45.194Z,5.9
2019-04-14T14:56:44.973Z,5.6
2019-04-14T14:59:45.420Z,5.4
2019-04-14T15:02:45.153Z,5.7
2019-04-14T15:05:45.235Z,5.2
2019-04-14T15:08:45.154Z,4.9
2019-04-14T15:11:45.374Z,5.8
2019-04-14T15:14:45.257Z,5.3
2019-04-14T15:17:45.036Z,5
2019-04-14T15:20:45.059Z,4.9
2019-04-14T15:23:45.188Z,5.1
2019-04-14T15:26:45.110Z,5
2019-04-14T15:29:45.151Z,4.9
2019-04-14T15:32:45.510Z,4.9
2019-04-14T15:35:45.107Z,4.7
2019-04-14T15:38:45.209Z,4.9
2019-04-14T15:41:45.075Z,4.8
2019-04-14T15:44:45.108Z,4.6
2019-04-14T15:47:45.180Z,4.6
2019-04-14T15:50:45.313Z,4.7
2019-04-14T15:53:45.116Z,5
2019-04-14T15:56:45.035Z,6.8
2019-04-14T15:59:45.128Z,6.1
2019-04-14T16:02:45.084Z,6.3
2019-04-14T16:05:45.162Z,6.8
2019-04-14T16:08:45.195Z,7.3
2019-04-14T16:11:45.041Z,7.6
2019-04-14T16:14:45.487Z,6.3
2019-04-14T16:17:45.157Z,5.5
2019-04-14T16:20:45.132Z,5.3
2019-04-14T16:23:51.314Z,5.6
2019-04-14T16:26:45.335Z,5.6
2019-04-14T16:29:44.970Z,5.1
2019-04-14T16:32:44.914Z,4.9
2019-04-14T16:35:45.113Z,5.3
2019-04-14T16:38:45.078Z,4.9
2019-04-14T16:41:45.130Z,4.9
2019-04-14T16:44:45.254Z,5.3
2019-04-14T16:47:45.096Z,5.5
2019-04-14T16:50:45.061Z,4.9
2019-04-14T16:53:45.228Z,5
2019-04-14T17:02:19.039Z,4.8
2019-04-14T17:08:29.934Z,8
2019-04-14T17:11:29.806Z,7
2019-04-14T17:14:30.003Z,6.7
2019-04-14T17:17:30.030Z,6.1
2019-04-14T17:20:31.049Z,6.6
2019-04-14T17:23:29.849Z,6.3
2019-04-14T17:26:29.957Z,6.3
2019-04-14T17:29:30.154Z,5.9
2019-04-14T17:32:30.033Z,5.6
2019-04-14T17:35:29.870Z,6.6
2019-04-14T17:38:30.039Z,5.8
2019-04-14T17:41:30.172Z,5.2
2019-04-14T17:44:30.085Z,5.3
2019-04-14T17:47:30.042Z,5.2
2019-04-14T17:50:41.586Z,5.2
2019-04-14T17:53:30.581Z,5.5
2019-04-14T17:56:30.065Z,5.2
2019-04-14T17:59:30.210Z,5.1
2019-04-14T18:02:30.273Z,4.9
2019-04-14T18:05:29.898Z,5
2019-04-14T18:08:30.232Z,5
2019-04-14T18:11:30.326Z,4.9
2019-04-14T18:14:30.095Z,4.8
2019-04-14T18:17:30.097Z,4.9
2019-04-14T18:20:30.325Z,4.9
2019-04-14T18:23:29.867Z,4.8
2019-04-14T18:26:29.760Z,5.4
2019-04-14T18:29:29.678Z,5.1
2019-04-14T18:32:29.972Z,4.9
2019-04-14T18:35:29.862Z,4.7
2019-04-14T18:38:29.870Z,4.6
2019-04-14T18:41:29.640Z,4.8
2019-04-14T18:44:29.862Z,5.7
2019-04-14T18:47:29.838Z,5.4
2019-04-14T18:50:29.813Z,5.2
2019-04-14T18:53:29.798Z,5.2
2019-04-14T18:56:29.708Z,5
2019-04-14T18:59:29.665Z,5
2019-04-14T19:02:29.906Z,4.9
2019-04-14T19:05:29.950Z,4.9
2019-04-14T19:08:29.939Z,4.8
2019-04-14T19:11:29.967Z,4.8
2019-04-14T19:14:30.047Z,4.7
2019-04-14T19:17:31.995Z,4.6
2019-04-14T19:20:30.186Z,4.6
2019-04-14T19:23:29.787Z,4.7
2019-04-14T19:26:29.957Z,4.6
2019-04-14T19:29:29.902Z,4.6
2019-04-14T19:32:30.077Z,4.8
2019-04-14T19:35:29.694Z,4.8
2019-04-14T19:38:29.811Z,4.7
2019-04-14T19:41:29.811Z,4.6
2019-04-14T19:44:29.817Z,4.5
2019-04-14T19:47:29.644Z,4.8
2019-04-14T19:50:29.864Z,5.3
2019-04-14T19:53:29.881Z,5.3
2019-04-14T19:56:29.682Z,5.8
2019-04-14T19:59:29.788Z,5.8
2019-04-14T20:02:29.802Z,5.5
2019-04-14T20:05:29.725Z,5.3
2019-04-14T20:08:29.856Z,5.2
2019-04-14T20:11:30.423Z,5.6
2019-04-14T20:14:30.010Z,5.5
2019-04-14T20:17:29.646Z,5.2
2019-04-14T20:20:29.683Z,5
2019-04-14T20:23:29.704Z,5
2019-04-14T20:26:29.901Z,4.9
2019-04-14T20:29:29.631Z,5
2019-04-14T20:32:29.865Z,5
2019-04-14T20:35:29.840Z,5.6
2019-04-14T20:38:29.761Z,5.2
2019-04-14T20:41:29.594Z,5.1
2019-04-14T20:44:29.817Z,5.3
2019-04-14T20:47:29.887Z,5.1
2019-04-14T20:50:29.942Z,4.9
2019-04-14T20:53:29.655Z,4.8
2019-04-14T20:56:29.724Z,4.7
2019-04-14T20:59:29.778Z,4.8
2019-04-14T21:02:29.829Z,4.8
2019-04-14T21:05:29.621Z,4.7
2019-04-14T21:08:29.926Z,4.7
2019-04-14T21:11:29.915Z,4.8
2019-04-14T21:14:29.635Z,4.8
2019-04-14T21:17:29.687Z,5.1
2019-04-14T21:20:30.091Z,5
2019-04-14T21:23:29.786Z,4.9
2019-04-14T21:26:29.763Z,5.1
2019-04-14T21:29:29.612Z,4.8
2019-04-14T21:32:29.649Z,4.7
2019-04-14T21:35:29.591Z,4.5
2019-04-14T21:38:29.662Z,4.4
2019-04-14T21:41:29.686Z,4.6
2019-04-14T21:44:29.761Z,4.5
2019-04-14T21:47:29.845Z,4.5
2019-04-14T21:50:29.818Z,4.7
2019-04-14T21:53:29.678Z,4.6
2019-04-14T21:56:29.745Z,4.6
2019-04-14T21:59:29.816Z,4.7
2019-04-14T22:02:29.763Z,4.5
2019-04-14T22:05:29.693Z,4.4
2019-04-14T22:08:29.895Z,4.5
2019-04-14T22:11:29.541Z,4.5
2019-04-14T22:14:29.787Z,4.3
2019-04-14T22:17:29.792Z,4.3
2019-04-14T22:20:29.735Z,4.3
2019-04-14T22:23:29.894Z,4.4
2019-04-14T22:26:29.893Z,4.3
2019-04-14T22:29:29.793Z,4.3
2019-04-14T22:32:29.712Z,4.3
2019-04-14T22:35:29.712Z,4.2
2019-04-14T22:38:29.837Z,4.2
2019-04-14T22:41:29.658Z,4.3
2019-04-14T22:44:29.943Z,4.3
2019-04-14T22:47:30.037Z,4.2
2019-04-14T22:50:29.655Z,4
2019-04-14T22:53:29.835Z,3.9
2019-04-14T22:56:40.199Z,4
2019-04-14T22:59:29.771Z,4
2019-04-14T23:02:29.843Z,3.9
2019-04-14T23:05:29.764Z,3.9
2019-04-14T23:08:29.992Z,4.1
2019-04-14T23:11:29.546Z,4.1
2019-04-14T23:14:29.750Z,4.1
2019-04-14T23:17:30.016Z,4
2019-04-14T23:20:29.927Z,4
2019-04-14T23:23:29.847Z,4
2019-04-14T23:26:29.849Z,4.1
2019-04-14T23:29:29.642Z,4.1
2019-04-14T23:32:29.674Z,4
2019-04-14T23:35:29.726Z,4
2019-04-14T23:38:29.779Z,3.9
2019-04-14T23:41:29.581Z,4
2019-04-14T23:44:29.881Z,3.9
2019-04-14T23:47:29.649Z,3.9
2019-04-14T23:50:29.686Z,3.9
2019-04-14T23:53:29.536Z,4.1
2019-04-14T23:56:29.799Z,4.1
2019-04-14T23:59:29.930Z,4
